Wednesday, December 12, 2018, 10:56 PM EST
Back to Local

KHYA, Hyannis Barnstable Boardmn

Location: West Yarmouth, MA, United States Lat: 41.667
Local Time: 10:56 PM EST ( 3:56 GMT) Lon: -70.267
Time Zone: US/Eastern Elev: 52 ft

Show me the last for .
Show Decoded

2018-12-12 21:56 METAR KHYA 130256Z 01007KT 10SM BKN045 00/M09 A3026 RMK AO2 SLP248 T00001094
                 53028 =
2018-12-12 20:56 METAR KHYA 130156Z 35008KT 10SM FEW041 00/M09 A3023 RMK AO2 SLP239 T00001089 =
2018-12-12 19:56 METAR KHYA 130056Z 36010KT 10SM CLR 00/M09 A3019 RMK AO2 SLP224 T00001094 =
2018-12-12 18:56 METAR KHYA 122356Z 34011KT 10SM BKN048 01/M09 A3018 RMK AO2 SLP220 T00061094
                 10033 20006 52036 =
2018-12-12 17:56 METAR KHYA 122256Z 32008KT 10SM FEW055 01/M10 A3014 RMK AO2 SLP209 T00111100 =
2018-12-12 16:56 METAR KHYA 122156Z 33008KT 10SM CLR 01/M09 A3010 RMK AO2 SLP195 T00111094 =
2018-12-12 15:56 METAR KHYA 122056Z 31007G21KT 10SM SCT050 02/M10 A3007 RMK AO2 SLP184 T00171100
                 53023 =
2018-12-12 14:56 METAR KHYA 121956Z 33012G18KT 10SM FEW050 02/M09 A3003 RMK AO2 SLP171 T00221094
                 =
2018-12-12 13:56 METAR KHYA 121856Z 35010G17KT 10SM SCT044 BKN055 03/M07 A3001 RMK AO2 SLP165
                 T00281067 =
2018-12-12 12:56 METAR KHYA 121756Z 34013G18KT 10SM SCT033 03/M06 A3000 RMK AO2 SLP160 T00281056
                 10033 20000 53009 =
2018-12-12 11:56 METAR KHYA 121656Z 32013G20KT 10SM SCT028 03/M05 A2999 RMK AO2 SLP156 T00281050
                 =
2018-12-12 11:24 METAR KHYA 121624Z 32010G16KT 10SM BKN027 03/M05 A2998 RMK AO2 T00281050 =
2018-12-12 10:56 METAR KHYA 121556Z 33011G20KT 290V350 10SM FEW026 02/M05 A2998 RMK AO2 SLP153
                 T00221050 =
2018-12-12 09:56 METAR KHYA 121456Z 32008KT 10SM SCT065 02/M05 A2997 RMK AO2 SLP151 T00171050
                 51021 =
2018-12-12 08:56 METAR KHYA 121356Z 30010G17KT 10SM FEW032 01/M05 A2996 RMK AO2 SLP148 T00111050
                 =
2018-12-12 07:56 METAR KHYA 121256Z 33009G17KT 10SM FEW030 SCT038 01/M05 A2994 RMK AO2 SLP141
                 T00111050 =
2018-12-12 06:56 METAR KHYA 121156Z 33009G16KT 10SM SCT029 00/M06 A2991 RMK AO2 SLP131 60000
                 T00001061 10011 21006 53025 =
2018-12-12 05:56 METAR KHYA 121056Z 32012G21KT 10SM SCT029 OVC065 01/M05 A2988 RMK AO2 SLP120
                 T00061050 =
2018-12-12 04:56 METAR KHYA 120956Z AUTO 33009G15KT 310V010 10SM OVC032 01/M04 A2986 RMK AO2
                 SLP112 T00111044 =
2018-12-12 03:56 METAR KHYA 120856Z AUTO 34007KT 10SM SCT030 BKN043 OVC070 01/M03 A2984 RMK AO2
                 SLP105 60000 T00111028 55005 =
2018-12-12 02:56 METAR KHYA 120756Z AUTO 00000KT 10SM FEW036 BKN050 OVC060 00/M02 A2983 RMK AO2
                 SNE19 SLP104 P0000 T00001017 =
2018-12-12 02:10 METAR KHYA 120710Z AUTO 00000KT 3SM -SN BR SCT024 OVC034 00/M02 A2985 RMK AO2
                 P0000 T00001017 =
2018-12-12 01:56 METAR KHYA 120656Z AUTO 33007KT 2SM -SN BR SCT014 BKN023 OVC028 01/M02 A2985 RMK
                 AO2 SNE06B24 SLP110 P0000 T00061017 =
2018-12-12 01:53 METAR KHYA 120653Z AUTO 33007KT 2 1/2SM -SN BR SCT014 OVC024 01/M02 A2985 RMK
                 AO2 SNE06B24 P0000 =
2018-12-12 01:38 METAR KHYA 120638Z AUTO 32004KT 5SM -SN BR BKN012 BKN018 OVC026 01/M02 A2986 RMK
                 AO2 SNE06B24 P0000 T00061017 =
2018-12-12 01:19 METAR KHYA 120619Z AUTO 32004KT 7SM OVC028 01/M02 A2985 RMK AO2 SNE06 P0000
                 T00061022 =
2018-12-12 00:56 METAR KHYA 120556Z AUTO 00000KT 6SM -SN OVC032 01/M02 A2985 RMK AO2 SNB54 SLP111
                 P0000 60000 T00061022 10006 21050 56020 =
2018-12-11 23:56 METAR KHYA 120456Z AUTO 00000KT 10SM SCT029 BKN043 OVC050 M01/M03 A2986 RMK AO2
                 SLP114 T10111033 400391067 =

Support USWX by starting your Amazon purchase here.